Time;durP1;ratioP1;P1;durP2;ratioP2;P2;SDS_P1;SDS_P2;PMS_P1;PMS_P2;Temp;Humidity;BMP_temperature;BMP_pressure;BME280_temperature;BME280_humidity;BME280_pressure;Samples;Min_cycle;Max_cycle;Signal;HPM_P1;HPM_P2
2023/01/07 00:00:51;;;;;;;7.97;1.80;;;;;;;;;;6192409;23;20102;-42
2023/01/07 00:03:19;;;;;;;4.85;0.82;;;;;;;;;;6213557;23;20012;-42
2023/01/07 00:05:47;;;;;;;8.52;1.92;;;;;;;;;;6202569;23;20089;-42
2023/01/07 00:08:15;;;;;;;4.65;0.85;;;;;;;;;;6220708;23;20012;-41
2023/01/07 00:10:42;;;;;;;10.98;1.45;;;;;;;;;;6210681;23;20522;-42
2023/01/07 00:13:10;;;;;;;5.70;1.50;;;;;;;;;;6206473;23;20079;-43
2023/01/07 00:15:42;;;;;;;10.23;1.20;;;;;;;;;;6205579;23;20050;-43
2023/01/07 00:18:10;;;;;;;6.22;1.40;;;;;;;;;;6216678;22;20453;-41
2023/01/07 00:20:37;;;;;;;6.32;1.20;;;;;;;;;;6207153;23;20016;-43
2023/01/07 00:23:07;;;;;;;10.27;1.55;;;;;;;;;;6219574;23;20017;-41
2023/01/07 00:25:35;;;;;;;6.50;1.17;;;;;;;;;;6211059;23;20426;-41
2023/01/07 00:28:03;;;;;;;8.30;1.50;;;;;;;;;;6214445;23;20020;-41
2023/01/07 00:30:30;;;;;;;10.60;1.45;;;;;;;;;;6210657;23;20040;-41
2023/01/07 00:33:03;;;;;;;8.32;1.17;;;;;;;;;;6216763;23;20055;-41
2023/01/07 00:35:33;;;;;;;7.13;1.13;;;;;;;;;;6203744;23;20016;-41
2023/01/07 00:38:00;;;;;;;10.23;1.20;;;;;;;;;;6205920;23;20020;-41
2023/01/07 00:40:29;;;;;;;9.38;2.05;;;;;;;;;;6214183;23;20143;-44
2023/01/07 00:43:01;;;;;;;10.93;1.42;;;;;;;;;;6213166;23;20458;-41
2023/01/07 00:45:30;;;;;;;7.07;1.25;;;;;;;;;;6208944;23;20556;-41
2023/01/07 00:48:00;;;;;;;7.43;1.40;;;;;;;;;;6213988;23;20070;-41
2023/01/07 00:50:29;;;;;;;8.13;1.30;;;;;;;;;;6203835;23;20016;-42
2023/01/07 00:52:57;;;;;;;5.82;1.30;;;;;;;;;;6218522;23;20016;-43
2023/01/07 00:55:25;;;;;;;10.77;1.52;;;;;;;;;;6206404;23;20020;-41
2023/01/07 00:57:54;;;;;;;12.52;1.50;;;;;;;;;;6222764;22;20016;-42
2023/01/07 01:00:22;;;;;;;10.82;1.85;;;;;;;;;;6208373;23;20016;-42
2023/01/07 01:02:51;;;;;;;8.13;1.17;;;;;;;;;;6221153;23;20012;-42
2023/01/07 01:05:24;;;;;;;7.47;1.55;;;;;;;;;;6220402;23;20087;-41
2023/01/07 01:07:51;;;;;;;13.02;2.35;;;;;;;;;;6211675;23;20040;-42
2023/01/07 01:10:20;;;;;;;7.88;1.23;;;;;;;;;;6225628;23;20091;-42
2023/01/07 01:12:48;;;;;;;9.50;2.20;;;;;;;;;;6211212;23;20475;-41
2023/01/07 01:15:16;;;;;;;7.87;1.30;;;;;;;;;;6221030;22;20442;-42
2023/01/07 01:17:43;;;;;;;6.30;1.80;;;;;;;;;;6210904;23;20016;-42
2023/01/07 01:20:13;;;;;;;5.93;1.10;;;;;;;;;;6217393;23;20020;-41
2023/01/07 01:22:42;;;;;;;11.50;2.05;;;;;;;;;;6213231;23;20115;-41
2023/01/07 01:25:10;;;;;;;10.55;1.85;;;;;;;;;;6215267;23;20016;-41
2023/01/07 01:27:38;;;;;;;10.27;1.90;;;;;;;;;;6216993;23;20454;-42
2023/01/07 01:30:06;;;;;;;6.47;1.60;;;;;;;;;;6210529;23;20524;-41
2023/01/07 01:32:35;;;;;;;9.65;1.73;;;;;;;;;;6215290;23;20029;-41
2023/01/07 01:35:03;;;;;;;6.68;2.00;;;;;;;;;;6205775;23;20046;-42
2023/01/07 01:37:30;;;;;;;10.10;1.60;;;;;;;;;;6220903;23;20027;-41
2023/01/07 01:40:02;;;;;;;7.13;1.90;;;;;;;;;;6207373;23;20087;-42
2023/01/07 01:42:31;;;;;;;10.60;1.73;;;;;;;;;;6215201;23;20027;-48
2023/01/07 01:44:59;;;;;;;9.63;1.65;;;;;;;;;;6222288;23;20016;-42
2023/01/07 01:47:32;;;;;;;9.80;1.65;;;;;;;;;;6216128;23;20066;-41
2023/01/07 01:50:05;;;;;;;10.63;1.45;;;;;;;;;;6217335;23;20016;-42
2023/01/07 01:52:34;;;;;;;12.63;1.90;;;;;;;;;;6221275;23;20020;-42
2023/01/07 01:55:05;;;;;;;10.00;1.52;;;;;;;;;;6208723;23;20100;-44
2023/01/07 01:57:33;;;;;;;7.82;1.75;;;;;;;;;;6219504;23;20023;-41
2023/01/07 02:00:01;;;;;;;7.72;1.92;;;;;;;;;;6206548;23;20609;-43
2023/01/07 02:02:32;;;;;;;7.20;1.48;;;;;;;;;;6215381;23;20023;-43
2023/01/07 02:05:00;;;;;;;12.67;1.70;;;;;;;;;;6215595;23;20016;-41
2023/01/07 02:07:28;;;;;;;10.45;2.08;;;;;;;;;;6220210;23;20131;-44
2023/01/07 02:09:58;;;;;;;9.68;1.33;;;;;;;;;;6214970;23;20087;-42
2023/01/07 02:12:34;;;;;;;9.50;1.58;;;;;;;;;;6213753;23;20016;-42
2023/01/07 02:15:07;;;;;;;6.88;1.75;;;;;;;;;;6226238;23;20059;-43
2023/01/07 02:17:55;;;;;;;8.23;2.20;;;;;;;;;;6210654;23;20016;-43
2023/01/07 02:20:30;;;;;;;7.65;1.40;;;;;;;;;;6220855;23;20019;-42
2023/01/07 02:23:07;;;;;;;10.13;1.80;;;;;;;;;;6223293;23;20047;-42
2023/01/07 02:26:05;;;;;;;9.07;1.50;;;;;;;;;;6213335;23;20066;-42
2023/01/07 02:28:51;;;;;;;9.65;1.52;;;;;;;;;;6070016;23;20193;-42
2023/01/07 02:31:28;;;;;;;7.93;1.33;;;;;;;;;;6198338;22;20016;-44
2023/01/07 02:34:02;;;;;;;6.07;1.60;;;;;;;;;;6216202;23;20017;-43
2023/01/07 02:36:33;;;;;;;9.55;2.05;;;;;;;;;;6224130;23;20045;-44
2023/01/07 02:39:12;;;;;;;6.93;2.03;;;;;;;;;;6212299;23;20085;-42
2023/01/07 02:41:45;;;;;;;10.02;1.60;;;;;;;;;;6214054;23;20020;-41
2023/01/07 02:44:17;;;;;;;7.43;1.57;;;;;;;;;;6222247;23;20091;-42
2023/01/07 02:46:50;;;;;;;9.43;1.75;;;;;;;;;;6223528;22;20121;-42
2023/01/07 02:49:19;;;;;;;6.53;1.55;;;;;;;;;;6214970;23;20024;-42
2023/01/07 02:51:47;;;;;;;6.93;1.33;;;;;;;;;;6210369;22;20597;-42
2023/01/07 02:54:16;;;;;;;7.13;1.40;;;;;;;;;;6219311;23;20012;-42
2023/01/07 02:56:56;;;;;;;6.60;1.10;;;;;;;;;;6211245;23;20411;-42
2023/01/07 02:59:28;;;;;;;9.27;1.48;;;;;;;;;;6213078;23;20015;-43
2023/01/07 03:02:05;;;;;;;9.73;1.48;;;;;;;;;;6212937;23;20044;-43
2023/01/07 03:04:49;;;;;;;12.73;2.10;;;;;;;;;;6210651;23;20326;-43
2023/01/07 03:07:24;;;;;;;9.07;1.45;;;;;;;;;;6210976;23;20021;-42
2023/01/07 03:09:56;;;;;;;9.70;1.87;;;;;;;;;;6202646;23;20099;-42
2023/01/07 03:12:30;;;;;;;9.32;1.75;;;;;;;;;;6219465;23;20043;-42
2023/01/07 03:15:02;;;;;;;8.40;2.00;;;;;;;;;;6219592;23;20308;-42
2023/01/07 03:17:31;;;;;;;10.35;1.60;;;;;;;;;;6210501;23;20042;-44
2023/01/07 03:20:00;;;;;;;13.63;2.20;;;;;;;;;;6216251;23;20290;-42
2023/01/07 03:22:29;;;;;;;7.93;1.50;;;;;;;;;;6211493;23;20082;-42
2023/01/07 03:24:57;;;;;;;8.07;1.48;;;;;;;;;;6215523;23;20012;-42
2023/01/07 03:27:26;;;;;;;8.43;2.58;;;;;;;;;;6206678;23;20091;-42
2023/01/07 03:29:54;;;;;;;7.65;2.17;;;;;;;;;;6219806;23;20016;-42
2023/01/07 03:32:24;;;;;;;8.98;1.55;;;;;;;;;;6206800;23;20012;-42
2023/01/07 03:34:52;;;;;;;10.00;2.20;;;;;;;;;;6217191;23;20027;-43
2023/01/07 03:37:22;;;;;;;9.25;1.88;;;;;;;;;;6220416;23;20054;-42
2023/01/07 03:39:50;;;;;;;4.65;1.33;;;;;;;;;;6206901;23;20012;-42
2023/01/07 03:45:06;;;;;;;11.07;2.47;;;;;;;;;;6213106;23;20048;-42
2023/01/07 03:47:35;;;;;;;11.23;1.70;;;;;;;;;;6209652;23;20036;-42
2023/01/07 03:50:03;;;;;;;8.63;2.65;;;;;;;;;;6209491;23;20508;-42
2023/01/07 03:52:32;;;;;;;11.52;2.13;;;;;;;;;;6213571;23;20019;-42
2023/01/07 03:55:00;;;;;;;9.52;1.58;;;;;;;;;;6196108;23;20020;-41
2023/01/07 03:57:28;;;;;;;12.88;2.20;;;;;;;;;;6217109;23;20036;-41
2023/01/07 03:59:55;;;;;;;12.17;1.33;;;;;;;;;;6206146;22;20040;-42
2023/01/07 04:02:23;;;;;;;9.13;2.30;;;;;;;;;;6218328;23;20095;-42
2023/01/07 04:04:50;;;;;;;9.43;2.15;;;;;;;;;;6209714;23;20715;-43
2023/01/07 04:07:18;;;;;;;9.30;1.58;;;;;;;;;;6214444;23;20477;-43
2023/01/07 04:09:49;;;;;;;8.25;1.85;;;;;;;;;;6212139;23;20099;-43
2023/01/07 04:12:17;;;;;;;8.53;2.03;;;;;;;;;;6218434;23;20526;-42
2023/01/07 04:14:44;;;;;;;11.50;2.20;;;;;;;;;;6205827;23;20016;-41
2023/01/07 04:17:16;;;;;;;8.52;1.85;;;;;;;;;;6218987;23;20051;-41
2023/01/07 04:19:44;;;;;;;9.90;2.08;;;;;;;;;;6220015;23;20016;-43
2023/01/07 04:22:12;;;;;;;9.75;2.15;;;;;;;;;;6207589;23;20534;-41
2023/01/07 04:24:39;;;;;;;9.67;2.00;;;;;;;;;;6221257;23;20129;-41
2023/01/07 04:27:09;;;;;;;8.40;2.25;;;;;;;;;;6206108;23;20020;-42
2023/01/07 04:29:36;;;;;;;6.35;1.40;;;;;;;;;;6211907;23;20087;-42
2023/01/07 04:32:04;;;;;;;8.35;1.40;;;;;;;;;;6209595;23;20593;-41
2023/01/07 04:34:32;;;;;;;8.10;2.03;;;;;;;;;;6188951;23;20046;-41
2023/01/07 04:36:59;;;;;;;12.37;2.00;;;;;;;;;;6221205;23;20062;-43
2023/01/07 04:39:27;;;;;;;11.90;1.90;;;;;;;;;;6187156;23;20450;-42
2023/01/07 04:41:55;;;;;;;12.85;1.90;;;;;;;;;;6221908;23;20443;-42
2023/01/07 04:44:23;;;;;;;13.43;2.10;;;;;;;;;;6223095;23;20091;-41
2023/01/07 04:46:51;;;;;;;7.85;1.70;;;;;;;;;;6206004;23;20025;-42
2023/01/07 04:49:19;;;;;;;12.73;2.07;;;;;;;;;;6218668;23;20450;-41
2023/01/07 04:51:46;;;;;;;9.60;1.67;;;;;;;;;;6214552;23;20013;-43
2023/01/07 04:54:14;;;;;;;12.77;2.03;;;;;;;;;;6210956;23;20020;-42
2023/01/07 04:56:42;;;;;;;12.50;1.85;;;;;;;;;;6219653;23;20051;-42
2023/01/07 04:59:09;;;;;;;10.77;1.70;;;;;;;;;;6211820;23;20023;-41
2023/01/07 05:01:38;;;;;;;9.27;1.97;;;;;;;;;;6221536;23;20016;-41
2023/01/07 05:04:06;;;;;;;10.27;2.03;;;;;;;;;;6207517;23;20020;-43
2023/01/07 05:06:34;;;;;;;10.27;1.30;;;;;;;;;;6219474;23;20019;-42
2023/01/07 05:09:02;;;;;;;6.57;1.27;;;;;;;;;;6210794;23;20035;-42
2023/01/07 05:11:29;;;;;;;6.90;1.27;;;;;;;;;;6212245;23;20062;-41
2023/01/07 05:13:59;;;;;;;8.57;1.43;;;;;;;;;;6221418;23;20016;-41
2023/01/07 05:16:27;;;;;;;8.75;1.30;;;;;;;;;;6213175;23;20107;-41
2023/01/07 05:18:56;;;;;;;8.60;1.20;;;;;;;;;;6215897;23;20016;-41
2023/01/07 05:21:24;;;;;;;7.53;1.30;;;;;;;;;;6208481;23;20031;-42
2023/01/07 05:23:52;;;;;;;8.35;1.50;;;;;;;;;;6217257;23;20399;-42
2023/01/07 05:26:19;;;;;;;7.83;1.97;;;;;;;;;;6208996;23;20071;-42
2023/01/07 05:28:48;;;;;;;6.88;1.50;;;;;;;;;;6221056;23;20044;-41
2023/01/07 05:31:19;;;;;;;6.25;1.40;;;;;;;;;;6218062;22;20012;-41
2023/01/07 05:33:47;;;;;;;9.30;1.20;;;;;;;;;;6202073;23;20366;-41
2023/01/07 05:36:16;;;;;;;5.43;1.25;;;;;;;;;;6223150;23;20418;-41
2023/01/07 05:38:43;;;;;;;7.23;1.30;;;;;;;;;;6211999;23;20012;-42
2023/01/07 05:41:11;;;;;;;7.85;1.20;;;;;;;;;;6217891;23;20020;-42
2023/01/07 05:43:42;;;;;;;7.15;1.48;;;;;;;;;;6218909;23;20035;-41
2023/01/07 05:46:10;;;;;;;6.10;1.10;;;;;;;;;;6214823;23;20031;-41
2023/01/07 05:48:38;;;;;;;10.00;1.20;;;;;;;;;;6215293;23;20040;-41
2023/01/07 05:51:05;;;;;;;8.93;1.40;;;;;;;;;;6216502;23;20082;-41
2023/01/07 05:53:35;;;;;;;7.05;1.15;;;;;;;;;;6210457;23;20016;-41
2023/01/07 05:56:03;;;;;;;5.45;1.00;;;;;;;;;;6214425;23;20047;-42
2023/01/07 05:58:30;;;;;;;5.85;1.20;;;;;;;;;;6211128;23;20016;-42
2023/01/07 06:00:58;;;;;;;8.23;2.00;;;;;;;;;;6219472;23;20095;-41
2023/01/07 06:03:26;;;;;;;8.13;1.10;;;;;;;;;;6214537;23;20012;-45
2023/01/07 06:05:53;;;;;;;7.38;1.05;;;;;;;;;;6220316;23;20012;-42
2023/01/07 06:08:21;;;;;;;8.63;1.40;;;;;;;;;;6200116;23;20022;-42
2023/01/07 06:10:50;;;;;;;9.73;1.75;;;;;;;;;;6221209;23;20091;-43
2023/01/07 06:13:18;;;;;;;6.00;1.40;;;;;;;;;;6209084;23;20019;-41
2023/01/07 06:15:46;;;;;;;8.40;1.43;;;;;;;;;;6210916;23;20163;-42
2023/01/07 06:18:18;;;;;;;7.32;1.50;;;;;;;;;;6218253;23;20095;-42
2023/01/07 06:20:45;;;;;;;5.75;0.93;;;;;;;;;;6208782;23;20054;-43
2023/01/07 06:23:13;;;;;;;9.10;0.95;;;;;;;;;;6221606;23;20107;-42
2023/01/07 06:25:41;;;;;;;6.63;1.40;;;;;;;;;;6210562;23;20023;-41
2023/01/07 06:28:10;;;;;;;5.50;0.93;;;;;;;;;;6216707;23;20008;-42
2023/01/07 06:30:37;;;;;;;6.57;1.20;;;;;;;;;;6203440;23;20020;-41
2023/01/07 06:33:05;;;;;;;6.32;1.10;;;;;;;;;;6212824;23;20011;-47
2023/01/07 06:35:33;;;;;;;6.82;1.20;;;;;;;;;;6208967;23;20187;-44
2023/01/07 06:38:01;;;;;;;7.50;1.20;;;;;;;;;;6207836;23;20516;-44
2023/01/07 06:40:29;;;;;;;9.70;2.27;;;;;;;;;;6224148;23;20026;-43
2023/01/07 06:42:57;;;;;;;6.82;1.05;;;;;;;;;;6213898;23;20103;-42
2023/01/07 06:45:26;;;;;;;5.30;0.90;;;;;;;;;;6210425;23;20070;-42
2023/01/07 06:47:56;;;;;;;9.65;1.55;;;;;;;;;;6224754;22;20363;-42
2023/01/07 06:50:23;;;;;;;11.18;1.48;;;;;;;;;;6199875;23;20020;-41
2023/01/07 06:52:51;;;;;;;6.10;1.10;;;;;;;;;;6215557;23;20024;-44
2023/01/07 06:55:19;;;;;;;5.63;1.17;;;;;;;;;;6205112;23;20012;-42
2023/01/07 06:57:47;;;;;;;8.35;1.50;;;;;;;;;;6220165;23;20066;-42
2023/01/07 07:00:15;;;;;;;9.93;2.15;;;;;;;;;;6208506;23;20439;-41
2023/01/07 07:02:44;;;;;;;7.82;1.80;;;;;;;;;;6211814;23;20050;-41
2023/01/07 07:05:11;;;;;;;9.80;1.43;;;;;;;;;;6203930;23;20111;-42
2023/01/07 07:07:39;;;;;;;7.28;1.50;;;;;;;;;;6219658;23;20020;-42
2023/01/07 07:10:08;;;;;;;10.63;1.90;;;;;;;;;;6217063;23;20455;-42
2023/01/07 07:12:36;;;;;;;8.25;1.10;;;;;;;;;;6212409;23;20031;-42
2023/01/07 07:15:09;;;;;;;10.27;1.60;;;;;;;;;;6220763;23;20016;-47
2023/01/07 07:17:36;;;;;;;7.83;1.23;;;;;;;;;;6201021;23;20016;-41
2023/01/07 07:20:06;;;;;;;9.52;1.55;;;;;;;;;;6221591;23;20012;-41
2023/01/07 07:22:34;;;;;;;10.60;1.80;;;;;;;;;;6210002;23;20070;-45
2023/01/07 07:25:02;;;;;;;7.22;1.27;;;;;;;;;;6217156;23;20516;-42
2023/01/07 07:27:29;;;;;;;9.38;1.52;;;;;;;;;;6206783;23;20385;-42
2023/01/07 07:29:57;;;;;;;10.50;1.50;;;;;;;;;;6218630;23;20498;-42
2023/01/07 07:32:27;;;;;;;9.15;1.80;;;;;;;;;;6210831;23;20055;-42
2023/01/07 07:34:55;;;;;;;13.40;1.35;;;;;;;;;;6217094;23;20023;-42
2023/01/07 07:37:24;;;;;;;13.35;2.15;;;;;;;;;;6218461;22;20070;-43
2023/01/07 07:39:51;;;;;;;7.82;1.55;;;;;;;;;;6214426;23;20352;-41
2023/01/07 07:42:19;;;;;;;8.37;1.13;;;;;;;;;;6215303;23;20016;-42
2023/01/07 07:44:46;;;;;;;8.05;0.80;;;;;;;;;;6218689;23;20687;-42
2023/01/07 07:47:14;;;;;;;5.95;1.00;;;;;;;;;;6218033;23;20502;-42
2023/01/07 07:49:42;;;;;;;6.82;1.05;;;;;;;;;;6215578;22;20024;-42
2023/01/07 07:52:10;;;;;;;10.13;1.35;;;;;;;;;;6208865;23;20047;-42
2023/01/07 07:54:38;;;;;;;9.63;1.50;;;;;;;;;;6215262;23;20034;-46
2023/01/07 07:57:06;;;;;;;7.03;1.17;;;;;;;;;;6214289;23;20020;-42
2023/01/07 07:59:34;;;;;;;11.90;1.38;;;;;;;;;;6213701;23;20040;-43
2023/01/07 08:02:01;;;;;;;8.30;1.27;;;;;;;;;;6209475;23;20455;-42
2023/01/07 08:04:32;;;;;;;9.13;1.20;;;;;;;;;;6215652;23;20016;-43
2023/01/07 08:07:01;;;;;;;9.47;1.47;;;;;;;;;;6216223;23;20020;-41
2023/01/07 08:09:28;;;;;;;7.68;1.50;;;;;;;;;;6213284;23;20104;-43
2023/01/07 08:11:57;;;;;;;10.02;1.10;;;;;;;;;;6216954;23;20035;-42
2023/01/07 08:14:25;;;;;;;6.18;1.33;;;;;;;;;;6209211;23;20111;-43
2023/01/07 08:16:53;;;;;;;10.15;1.23;;;;;;;;;;6218908;23;20446;-42
2023/01/07 08:19:21;;;;;;;7.97;1.40;;;;;;;;;;6210248;23;20044;-42
2023/01/07 08:21:48;;;;;;;12.98;2.15;;;;;;;;;;6219511;23;20891;-43
2023/01/07 08:24:16;;;;;;;9.73;1.10;;;;;;;;;;6207036;23;20558;-41
2023/01/07 08:26:44;;;;;;;9.48;1.08;;;;;;;;;;6215737;23;20012;-42
2023/01/07 08:29:13;;;;;;;7.57;1.00;;;;;;;;;;6209999;23;20051;-42
2023/01/07 08:31:40;;;;;;;9.03;0.97;;;;;;;;;;6218403;23;20016;-43
2023/01/07 08:34:08;;;;;;;6.68;1.00;;;;;;;;;;6210406;23;20087;-41
2023/01/07 08:36:36;;;;;;;8.95;1.30;;;;;;;;;;6223168;23;20036;-44
2023/01/07 08:39:04;;;;;;;12.30;1.70;;;;;;;;;;6204378;23;20439;-41
2023/01/07 08:41:31;;;;;;;6.13;1.48;;;;;;;;;;6209155;23;20012;-43
2023/01/07 08:43:59;;;;;;;7.63;1.47;;;;;;;;;;6215394;23;20720;-42
2023/01/07 08:46:28;;;;;;;8.95;1.20;;;;;;;;;;6222947;23;20035;-41
2023/01/07 08:48:56;;;;;;;5.82;0.80;;;;;;;;;;6209717;23;20470;-43
2023/01/07 08:51:23;;;;;;;7.03;1.67;;;;;;;;;;6216231;23;20023;-42
2023/01/07 08:53:51;;;;;;;8.13;1.23;;;;;;;;;;6203712;23;20039;-45
2023/01/07 08:56:18;;;;;;;10.87;1.50;;;;;;;;;;6212363;23;20131;-42
2023/01/07 08:58:47;;;;;;;4.47;0.80;;;;;;;;;;6217772;23;20123;-42
2023/01/07 09:01:14;;;;;;;5.90;1.13;;;;;;;;;;6213560;22;20446;-43
2023/01/07 09:03:45;;;;;;;6.80;1.10;;;;;;;;;;6208080;23;20059;-42
2023/01/07 09:06:13;;;;;;;6.95;1.20;;;;;;;;;;6214349;23;20074;-42
2023/01/07 09:08:41;;;;;;;6.40;1.10;;;;;;;;;;6213513;23;20040;-41
2023/01/07 09:11:08;;;;;;;9.75;1.05;;;;;;;;;;6206489;23;20078;-43
2023/01/07 09:13:36;;;;;;;7.45;0.82;;;;;;;;;;6218872;23;20074;-41
2023/01/07 09:16:04;;;;;;;7.97;1.25;;;;;;;;;;6209254;23;20058;-42
2023/01/07 09:18:32;;;;;;;7.80;1.20;;;;;;;;;;6220312;23;20458;-43
2023/01/07 09:21:01;;;;;;;9.87;1.33;;;;;;;;;;6209755;23;20557;-41
2023/01/07 09:23:29;;;;;;;6.38;1.20;;;;;;;;;;6216276;23;20062;-43
2023/01/07 09:25:56;;;;;;;7.22;1.15;;;;;;;;;;6206578;23;20410;-43
2023/01/07 09:28:28;;;;;;;12.90;1.40;;;;;;;;;;6210920;23;20123;-42
2023/01/07 09:30:56;;;;;;;4.78;0.90;;;;;;;;;;6219928;23;20051;-42
2023/01/07 09:33:23;;;;;;;9.30;1.40;;;;;;;;;;6216094;23;20020;-43
2023/01/07 09:35:52;;;;;;;10.07;1.40;;;;;;;;;;6224656;23;20027;-41
2023/01/07 09:38:20;;;;;;;7.22;1.42;;;;;;;;;;6205184;23;20290;-41
2023/01/07 09:40:48;;;;;;;10.00;1.73;;;;;;;;;;6224114;23;20048;-41
2023/01/07 09:43:17;;;;;;;5.82;0.68;;;;;;;;;;6211412;23;20020;-42
2023/01/07 09:45:46;;;;;;;10.87;1.50;;;;;;;;;;6213843;23;20091;-41
2023/01/07 09:48:17;;;;;;;13.43;1.50;;;;;;;;;;6226638;23;20024;-42
2023/01/07 09:50:48;;;;;;;9.27;1.13;;;;;;;;;;6207721;23;20027;-42
2023/01/07 09:53:19;;;;;;;5.55;0.90;;;;;;;;;;6220360;23;20012;-42
2023/01/07 09:55:50;;;;;;;5.68;0.82;;;;;;;;;;6182299;23;20729;-42
2023/01/07 09:58:39;;;;;;;9.87;1.37;;;;;;;;;;6211183;23;20020;-42
2023/01/07 10:01:14;;;;;;;7.28;0.75;;;;;;;;;;6219047;23;20108;-42
2023/01/07 10:03:50;;;;;;;7.53;0.77;;;;;;;;;;6213264;23;20020;-43
2023/01/07 10:06:20;;;;;;;3.78;0.80;;;;;;;;;;6216061;23;20023;-42
2023/01/07 10:09:12;;;;;;;5.60;0.80;;;;;;;;;;6214172;22;20030;-42
2023/01/07 10:11:45;;;;;;;5.40;1.00;;;;;;;;;;6209584;23;20427;-41
2023/01/07 10:14:26;;;;;;;4.97;0.82;;;;;;;;;;6222511;23;20050;-42
2023/01/07 10:16:56;;;;;;;4.22;0.50;;;;;;;;;;6211650;23;20016;-41
2023/01/07 10:19:33;;;;;;;8.32;0.70;;;;;;;;;;6216420;23;20107;-41
2023/01/07 10:22:02;;;;;;;6.68;1.00;;;;;;;;;;6215013;23;20451;-41
2023/01/07 10:24:32;;;;;;;6.87;1.10;;;;;;;;;;6210503;23;20044;-42
2023/01/07 10:27:03;;;;;;;16.40;1.45;;;;;;;;;;6206675;23;20099;-41
2023/01/07 10:29:34;;;;;;;8.70;1.35;;;;;;;;;;6211407;23;20172;-42
2023/01/07 10:32:06;;;;;;;6.57;1.30;;;;;;;;;;6214612;23;20012;-41
2023/01/07 10:34:36;;;;;;;7.00;1.30;;;;;;;;;;6217866;23;20020;-41
2023/01/07 10:37:06;;;;;;;8.80;1.30;;;;;;;;;;6212034;23;20012;-43
2023/01/07 10:39:42;;;;;;;10.32;0.70;;;;;;;;;;6217536;23;20131;-41
2023/01/07 10:42:15;;;;;;;7.75;1.45;;;;;;;;;;6217949;23;20088;-43
2023/01/07 10:44:57;;;;;;;9.65;1.45;;;;;;;;;;6218638;23;20020;-42
2023/01/07 10:47:34;;;;;;;11.07;1.30;;;;;;;;;;6216397;23;20331;-41
2023/01/07 10:50:21;;;;;;;13.13;1.30;;;;;;;;;;6215249;23;20043;-43
2023/01/07 10:52:54;;;;;;;8.25;1.00;;;;;;;;;;6222061;23;20377;-45
2023/01/07 10:55:27;;;;;;;10.85;1.48;;;;;;;;;;6209894;23;20012;-43
2023/01/07 10:57:56;;;;;;;9.30;1.35;;;;;;;;;;6213506;23;20043;-43
2023/01/07 11:00:24;;;;;;;8.85;1.20;;;;;;;;;;6209670;23;20099;-42
2023/01/07 11:02:54;;;;;;;11.63;1.20;;;;;;;;;;6221281;23;20055;-41
2023/01/07 11:05:26;;;;;;;9.30;0.98;;;;;;;;;;6205988;22;20324;-42
2023/01/07 11:07:56;;;;;;;13.38;1.15;;;;;;;;;;6216557;23;20095;-42
2023/01/07 11:10:25;;;;;;;12.45;1.25;;;;;;;;;;6211929;23;20051;-45
2023/01/07 11:12:53;;;;;;;7.78;0.70;;;;;;;;;;6208903;23;20012;-44
2023/01/07 11:15:26;;;;;;;9.03;1.40;;;;;;;;;;6211071;23;20020;-41
2023/01/07 11:17:55;;;;;;;10.63;0.98;;;;;;;;;;6206656;23;20051;-42
2023/01/07 11:20:43;;;;;;;9.60;1.23;;;;;;;;;;6213807;23;20290;-41
2023/01/07 11:23:18;;;;;;;7.40;0.75;;;;;;;;;;6217183;23;20456;-41
2023/01/07 11:25:46;;;;;;;9.60;1.10;;;;;;;;;;6204099;23;20066;-42
2023/01/07 11:28:17;;;;;;;8.57;1.43;;;;;;;;;;6211423;23;20086;-41
2023/01/07 11:30:55;;;;;;;6.53;0.82;;;;;;;;;;6208615;23;20123;-41
2023/01/07 11:33:25;;;;;;;9.95;0.90;;;;;;;;;;6201220;23;20263;-41
2023/01/07 11:36:13;;;;;;;7.68;0.70;;;;;;;;;;6216660;23;20016;-41
2023/01/07 11:38:41;;;;;;;8.18;1.08;;;;;;;;;;6194664;23;20075;-44
2023/01/07 11:41:19;;;;;;;5.97;0.90;;;;;;;;;;6211075;23;20020;-41
2023/01/07 11:43:48;;;;;;;5.38;0.80;;;;;;;;;;6209914;23;20044;-42
2023/01/07 11:46:18;;;;;;;8.00;0.55;;;;;;;;;;6217144;23;20016;-43
2023/01/07 11:48:52;;;;;;;12.63;1.70;;;;;;;;;;6208935;23;20257;-42
2023/01/07 11:51:21;;;;;;;12.13;1.23;;;;;;;;;;6216569;23;20048;-41
2023/01/07 11:53:53;;;;;;;8.50;0.90;;;;;;;;;;6201676;23;20023;-41
2023/01/07 11:56:25;;;;;;;5.32;0.90;;;;;;;;;;6213782;23;20047;-44
2023/01/07 11:59:08;;;;;;;7.80;1.33;;;;;;;;;;6201286;23;20043;-41
2023/01/07 12:01:42;;;;;;;4.25;0.60;;;;;;;;;;6197351;22;20066;-41
2023/01/07 12:04:21;;;;;;;7.15;0.68;;;;;;;;;;6218954;23;20027;-41
2023/01/07 12:06:49;;;;;;;9.63;1.10;;;;;;;;;;6211198;23;20012;-42
2023/01/07 12:09:26;;;;;;;3.55;0.50;;;;;;;;;;6213540;23;20016;-42
2023/01/07 12:11:56;;;;;;;3.78;0.50;;;;;;;;;;6206699;23;20016;-42
2023/01/07 12:14:30;;;;;;;4.72;0.60;;;;;;;;;;6212375;23;20043;-44
2023/01/07 12:17:09;;;;;;;7.28;0.57;;;;;;;;;;6211533;23;20039;-41
2023/01/07 12:20:07;;;;;;;7.43;0.70;;;;;;;;;;6213675;23;20543;-41
2023/01/07 12:22:40;;;;;;;5.90;0.65;;;;;;;;;;6084291;23;20072;-41
2023/01/07 12:25:13;;;;;;;7.72;0.57;;;;;;;;;;6215192;22;20462;-42
2023/01/07 12:27:44;;;;;;;3.60;0.55;;;;;;;;;;6210555;23;20488;-41
2023/01/07 12:30:24;;;;;;;2.67;0.43;;;;;;;;;;6214860;23;20062;-41
2023/01/07 12:33:01;;;;;;;2.70;0.30;;;;;;;;;;6208911;23;20039;-42
2023/01/07 12:35:31;;;;;;;2.78;0.30;;;;;;;;;;6209797;23;20052;-41
2023/01/07 12:38:10;;;;;;;4.88;0.82;;;;;;;;;;6216976;23;20027;-43
2023/01/07 12:40:39;;;;;;;4.75;0.50;;;;;;;;;;6220718;22;20095;-42
2023/01/07 12:43:11;;;;;;;4.65;0.38;;;;;;;;;;6212100;23;20020;-42
2023/01/07 12:45:41;;;;;;;4.60;0.43;;;;;;;;;;6206073;23;20016;-41
2023/01/07 12:48:15;;;;;;;3.70;0.50;;;;;;;;;;6214405;23;20016;-44
2023/01/07 12:50:45;;;;;;;2.42;0.30;;;;;;;;;;6210559;23;20344;-42
2023/01/07 12:53:15;;;;;;;4.72;0.50;;;;;;;;;;6213260;23;20070;-42
2023/01/07 12:55:46;;;;;;;3.67;0.32;;;;;;;;;;6217457;23;20020;-41
2023/01/07 12:58:17;;;;;;;6.47;0.90;;;;;;;;;;6207492;23;20016;-42
2023/01/07 13:00:46;;;;;;;3.50;0.50;;;;;;;;;;6216774;23;20016;-45
2023/01/07 13:03:21;;;;;;;6.53;0.65;;;;;;;;;;6211449;23;20430;-43
2023/01/07 13:05:52;;;;;;;6.05;0.50;;;;;;;;;;6217067;23;20634;-43
2023/01/07 13:08:23;;;;;;;5.60;0.60;;;;;;;;;;6216475;23;20094;-43
2023/01/07 13:10:53;;;;;;;6.57;0.50;;;;;;;;;;6208632;23;20016;-44
2023/01/07 13:13:22;;;;;;;10.52;0.70;;;;;;;;;;6212379;23;20009;-42
2023/01/07 13:15:51;;;;;;;11.23;0.70;;;;;;;;;;6205515;23;20019;-44
2023/01/07 13:18:21;;;;;;;4.38;0.50;;;;;;;;;;6218505;23;20028;-41
2023/01/07 13:20:53;;;;;;;4.75;0.70;;;;;;;;;;6207461;23;20020;-42
2023/01/07 13:23:23;;;;;;;4.83;0.53;;;;;;;;;;6205483;23;20091;-41
2023/01/07 13:26:01;;;;;;;3.88;0.45;;;;;;;;;;6205563;23;20020;-42
2023/01/07 13:28:47;;;;;;;5.82;0.88;;;;;;;;;;6213771;22;20596;-42
2023/01/07 13:31:21;;;;;;;6.43;0.57;;;;;;;;;;6210763;23;20596;-43
2023/01/07 13:33:53;;;;;;;6.18;0.38;;;;;;;;;;6213680;23;20020;-45
2023/01/07 13:36:25;;;;;;;4.33;0.30;;;;;;;;;;6210460;23;20074;-42
2023/01/07 13:39:16;;;;;;;7.47;0.70;;;;;;;;;;6214535;23;20024;-43
2023/01/07 13:41:51;;;;;;;5.13;0.60;;;;;;;;;;6216600;23;20016;-43
2023/01/07 13:44:27;;;;;;;4.35;0.40;;;;;;;;;;6213654;23;20058;-43
2023/01/07 13:46:55;;;;;;;3.85;0.40;;;;;;;;;;6193996;23;20399;-42
2023/01/07 13:49:26;;;;;;;8.23;0.60;;;;;;;;;;6209869;23;20039;-42
2023/01/07 13:51:54;;;;;;;6.13;0.63;;;;;;;;;;6207745;23;20689;-44
2023/01/07 13:54:36;;;;;;;4.68;0.50;;;;;;;;;;6217643;23;20418;-42
2023/01/07 13:57:36;;;;;;;5.07;0.60;;;;;;;;;;6178912;23;20024;-45
2023/01/07 14:00:05;;;;;;;7.32;0.57;;;;;;;;;;6207695;23;20390;-42
2023/01/07 14:02:48;;;;;;;9.33;0.60;;;;;;;;;;6221683;23;20070;-41
2023/01/07 14:05:23;;;;;;;8.93;0.68;;;;;;;;;;6210896;22;20040;-42
2023/01/07 14:07:52;;;;;;;3.85;0.50;;;;;;;;;;6215365;23;20055;-42
2023/01/07 14:10:28;;;;;;;5.53;0.40;;;;;;;;;;6220295;23;20012;-41
2023/01/07 14:13:03;;;;;;;6.15;0.60;;;;;;;;;;6212936;23;20020;-41
2023/01/07 14:15:58;;;;;;;6.70;0.67;;;;;;;;;;6209406;23;20324;-41
2023/01/07 14:18:43;;;;;;;8.05;0.50;;;;;;;;;;6216138;22;20468;-43
2023/01/07 14:21:33;;;;;;;8.93;0.80;;;;;;;;;;6203438;23;20043;-41
2023/01/07 14:24:13;;;;;;;8.35;0.90;;;;;;;;;;6190970;23;20095;-42
2023/01/07 14:26:49;;;;;;;7.15;0.63;;;;;;;;;;6208779;23;20040;-43
2023/01/07 14:29:32;;;;;;;4.33;0.43;;;;;;;;;;6215616;23;20394;-44
2023/01/07 14:32:13;;;;;;;9.77;0.68;;;;;;;;;;6208642;22;20048;-41
2023/01/07 14:34:42;;;;;;;6.40;0.63;;;;;;;;;;6211000;23;20016;-42
2023/01/07 14:37:16;;;;;;;7.97;0.50;;;;;;;;;;6212231;23;20095;-47
2023/01/07 14:39:46;;;;;;;8.63;0.70;;;;;;;;;;6212222;23;20032;-42
2023/01/07 14:42:34;;;;;;;8.60;1.10;;;;;;;;;;6215402;23;20110;-42
2023/01/07 14:45:02;;;;;;;7.63;0.82;;;;;;;;;;6206570;22;20070;-41
2023/01/07 14:47:48;;;;;;;8.25;0.80;;;;;;;;;;6214317;23;20051;-42
2023/01/07 14:50:20;;;;;;;6.13;0.82;;;;;;;;;;6206054;23;20016;-42
2023/01/07 14:53:22;;;;;;;10.05;1.42;;;;;;;;;;6217422;22;20016;-41
2023/01/07 14:56:00;;;;;;;8.43;1.00;;;;;;;;;;6216911;23;20023;-45
2023/01/07 14:58:43;;;;;;;10.50;1.38;;;;;;;;;;6206410;23;20728;-43
2023/01/07 15:01:28;;;;;;;11.10;0.85;;;;;;;;;;6217561;23;20102;-42
2023/01/07 15:04:03;;;;;;;14.25;1.25;;;;;;;;;;6218163;23;20016;-41
2023/01/07 15:06:34;;;;;;;7.00;0.68;;;;;;;;;;6200119;23;20537;-41